sensor_id;sensor_type;location;lat;lon;timestamp;temperature;humidity
10070;DHT22;5074;53.720;10.014;2022-12-18T00:00:03;-4.80;99.90
10070;DHT22;5074;53.720;10.014;2022-12-18T00:02:32;-4.90;99.90
10070;DHT22;5074;53.720;10.014;2022-12-18T00:05:00;-4.90;99.90
10070;DHT22;5074;53.720;10.014;2022-12-18T00:07:32;-4.80;99.90
10070;DHT22;5074;53.720;10.014;2022-12-18T00:10:00;-4.80;99.90
10070;DHT22;5074;53.720;10.014;2022-12-18T00:12:28;-4.90;99.90
10070;DHT22;5074;53.720;10.014;2022-12-18T00:14:55;-4.80;99.90
10070;DHT22;5074;53.720;10.014;2022-12-18T00:17:23;-4.80;99.90
10070;DHT22;5074;53.720;10.014;2022-12-18T00:19:51;-4.90;99.90
10070;DHT22;5074;53.720;10.014;2022-12-18T00:22:19;-4.90;99.90
10070;DHT22;5074;53.720;10.014;2022-12-18T00:24:49;-4.90;99.90
10070;DHT22;5074;53.720;10.014;2022-12-18T00:27:17;-4.90;99.90
10070;DHT22;5074;53.720;10.014;2022-12-18T00:29:45;-4.90;99.90
10070;DHT22;5074;53.720;10.014;2022-12-18T00:32:13;-4.90;99.90
10070;DHT22;5074;53.720;10.014;2022-12-18T00:34:41;-4.80;99.90
10070;DHT22;5074;53.720;10.014;2022-12-18T00:37:09;-4.80;99.90
10070;DHT22;5074;53.720;10.014;2022-12-18T00:39:43;-4.80;99.90
10070;DHT22;5074;53.720;10.014;2022-12-18T00:42:13;-4.70;99.90
10070;DHT22;5074;53.720;10.014;2022-12-18T00:44:58;-4.80;99.90
10070;DHT22;5074;53.720;10.014;2022-12-18T00:47:26;-4.80;99.90
10070;DHT22;5074;53.720;10.014;2022-12-18T00:49:54;-4.80;99.90
10070;DHT22;5074;53.720;10.014;2022-12-18T00:52:22;-4.90;99.90
10070;DHT22;5074;53.720;10.014;2022-12-18T00:54:50;-4.90;99.90
10070;DHT22;5074;53.720;10.014;2022-12-18T00:57:19;-4.90;99.90
10070;DHT22;5074;53.720;10.014;2022-12-18T00:59:47;-4.90;99.90
10070;DHT22;5074;53.720;10.014;2022-12-18T01:02:15;-4.80;99.90
10070;DHT22;5074;53.720;10.014;2022-12-18T01:04:43;-4.80;99.90
10070;DHT22;5074;53.720;10.014;2022-12-18T01:07:11;-4.80;99.90
10070;DHT22;5074;53.720;10.014;2022-12-18T01:09:40;-4.80;99.90
10070;DHT22;5074;53.720;10.014;2022-12-18T01:12:08;-4.90;99.90
10070;DHT22;5074;53.720;10.014;2022-12-18T01:14:37;-4.90;99.90
10070;DHT22;5074;53.720;10.014;2022-12-18T01:17:05;-5.00;99.90
10070;DHT22;5074;53.720;10.014;2022-12-18T01:19:33;-5.10;99.90
10070;DHT22;5074;53.720;10.014;2022-12-18T01:22:01;-5.00;99.90
10070;DHT22;5074;53.720;10.014;2022-12-18T01:24:30;-5.10;99.90
10070;DHT22;5074;53.720;10.014;2022-12-18T01:26:58;-5.00;99.90
10070;DHT22;5074;53.720;10.014;2022-12-18T01:29:26;-5.10;99.90
10070;DHT22;5074;53.720;10.014;2022-12-18T01:31:55;-5.30;99.90
10070;DHT22;5074;53.720;10.014;2022-12-18T01:34:24;-5.20;99.90
10070;DHT22;5074;53.720;10.014;2022-12-18T01:36:52;-5.30;99.90
10070;DHT22;5074;53.720;10.014;2022-12-18T01:39:20;-5.30;99.90
10070;DHT22;5074;53.720;10.014;2022-12-18T01:41:48;-5.20;99.90
10070;DHT22;5074;53.720;10.014;2022-12-18T01:47:32;-5.20;99.90
10070;DHT22;5074;53.720;10.014;2022-12-18T01:50:05;-5.10;99.90
10070;DHT22;5074;53.720;10.014;2022-12-18T01:52:35;-5.10;99.90
10070;DHT22;5074;53.720;10.014;2022-12-18T01:55:05;-5.20;99.90
10070;DHT22;5074;53.720;10.014;2022-12-18T01:57:35;-5.20;99.90
10070;DHT22;5074;53.720;10.014;2022-12-18T02:00:06;-5.20;99.90
10070;DHT22;5074;53.720;10.014;2022-12-18T02:02:37;-5.20;99.90
10070;DHT22;5074;53.720;10.014;2022-12-18T02:05:06;-5.30;99.90
10070;DHT22;5074;53.720;10.014;2022-12-18T02:07:46;-5.20;99.90
10070;DHT22;5074;53.720;10.014;2022-12-18T02:10:33;-5.20;99.90
10070;DHT22;5074;53.720;10.014;2022-12-18T02:13:08;-5.20;99.90
10070;DHT22;5074;53.720;10.014;2022-12-18T02:15:44;-5.20;99.90
10070;DHT22;5074;53.720;10.014;2022-12-18T02:18:20;-5.20;99.90
10070;DHT22;5074;53.720;10.014;2022-12-18T02:20:53;-5.20;99.90
10070;DHT22;5074;53.720;10.014;2022-12-18T02:23:36;-5.30;99.90
10070;DHT22;5074;53.720;10.014;2022-12-18T02:26:25;-5.40;99.90
10070;DHT22;5074;53.720;10.014;2022-12-18T02:28:58;-5.30;99.90
10070;DHT22;5074;53.720;10.014;2022-12-18T02:31:30;-5.30;99.90
10070;DHT22;5074;53.720;10.014;2022-12-18T02:34:03;-5.30;99.90
10070;DHT22;5074;53.720;10.014;2022-12-18T02:36:33;-5.30;99.90
10070;DHT22;5074;53.720;10.014;2022-12-18T02:39:05;-5.20;99.90
10070;DHT22;5074;53.720;10.014;2022-12-18T02:41:38;-5.20;99.90
10070;DHT22;5074;53.720;10.014;2022-12-18T02:44:08;-5.20;99.90
10070;DHT22;5074;53.720;10.014;2022-12-18T02:46:38;-5.40;99.90
10070;DHT22;5074;53.720;10.014;2022-12-18T02:49:12;-5.70;99.90
10070;DHT22;5074;53.720;10.014;2022-12-18T02:51:50;-5.90;99.90
10070;DHT22;5074;53.720;10.014;2022-12-18T02:54:29;-6.00;99.90
10070;DHT22;5074;53.720;10.014;2022-12-18T02:57:16;-6.00;99.90
10070;DHT22;5074;53.720;10.014;2022-12-18T02:59:54;-6.00;99.90
10070;DHT22;5074;53.720;10.014;2022-12-18T03:02:27;-6.10;99.90
10070;DHT22;5074;53.720;10.014;2022-12-18T03:05:03;-6.00;99.90
10070;DHT22;5074;53.720;10.014;2022-12-18T03:07:38;-6.00;99.90
10070;DHT22;5074;53.720;10.014;2022-12-18T03:10:12;-5.90;99.90
10070;DHT22;5074;53.720;10.014;2022-12-18T03:12:44;-5.90;99.90
10070;DHT22;5074;53.720;10.014;2022-12-18T03:15:18;-5.90;99.90
10070;DHT22;5074;53.720;10.014;2022-12-18T03:17:51;-5.80;99.90
10070;DHT22;5074;53.720;10.014;2022-12-18T03:20:23;-5.70;99.90
10070;DHT22;5074;53.720;10.014;2022-12-18T03:22:55;-5.60;99.90
10070;DHT22;5074;53.720;10.014;2022-12-18T03:25:27;-5.70;99.90
10070;DHT22;5074;53.720;10.014;2022-12-18T03:27:59;-5.90;99.90
10070;DHT22;5074;53.720;10.014;2022-12-18T03:30:31;-5.90;99.90
10070;DHT22;5074;53.720;10.014;2022-12-18T03:33:05;-5.90;99.90
10070;DHT22;5074;53.720;10.014;2022-12-18T03:35:39;-5.90;99.90
10070;DHT22;5074;53.720;10.014;2022-12-18T03:38:09;-5.90;99.90
10070;DHT22;5074;53.720;10.014;2022-12-18T03:40:41;-5.80;99.90
10070;DHT22;5074;53.720;10.014;2022-12-18T03:43:18;-5.80;99.90
10070;DHT22;5074;53.720;10.014;2022-12-18T03:45:54;-5.80;99.90
10070;DHT22;5074;53.720;10.014;2022-12-18T03:48:31;-5.80;99.90
10070;DHT22;5074;53.720;10.014;2022-12-18T03:51:03;-5.80;99.90
10070;DHT22;5074;53.720;10.014;2022-12-18T03:53:35;-5.80;99.90
10070;DHT22;5074;53.720;10.014;2022-12-18T03:56:06;-5.80;99.90
10070;DHT22;5074;53.720;10.014;2022-12-18T03:58:39;-5.80;99.90
10070;DHT22;5074;53.720;10.014;2022-12-18T04:01:09;-5.80;99.90
10070;DHT22;5074;53.720;10.014;2022-12-18T04:03:41;-5.80;99.90
10070;DHT22;5074;53.720;10.014;2022-12-18T04:06:12;-5.90;99.90
10070;DHT22;5074;53.720;10.014;2022-12-18T04:08:42;-5.90;99.90
10070;DHT22;5074;53.720;10.014;2022-12-18T04:11:11;-5.80;99.90
10070;DHT22;5074;53.720;10.014;2022-12-18T04:13:41;-5.90;99.90
10070;DHT22;5074;53.720;10.014;2022-12-18T04:16:10;-5.80;99.90
10070;DHT22;5074;53.720;10.014;2022-12-18T04:18:38;-5.80;99.90
10070;DHT22;5074;53.720;10.014;2022-12-18T04:21:06;-5.80;99.90
10070;DHT22;5074;53.720;10.014;2022-12-18T04:23:34;-5.80;99.90
10070;DHT22;5074;53.720;10.014;2022-12-18T04:26:02;-5.80;99.90
10070;DHT22;5074;53.720;10.014;2022-12-18T04:28:31;-5.80;99.90
10070;DHT22;5074;53.720;10.014;2022-12-18T04:31:00;-5.80;99.90
10070;DHT22;5074;53.720;10.014;2022-12-18T04:33:29;-5.80;99.90
10070;DHT22;5074;53.720;10.014;2022-12-18T04:35:57;-5.90;99.90
10070;DHT22;5074;53.720;10.014;2022-12-18T04:38:25;-5.90;99.90
10070;DHT22;5074;53.720;10.014;2022-12-18T04:40:53;-5.90;99.90
10070;DHT22;5074;53.720;10.014;2022-12-18T04:43:21;-5.90;99.90
10070;DHT22;5074;53.720;10.014;2022-12-18T04:45:49;-6.00;99.90
10070;DHT22;5074;53.720;10.014;2022-12-18T04:48:18;-6.00;99.90
10070;DHT22;5074;53.720;10.014;2022-12-18T04:50:47;-6.00;99.90
10070;DHT22;5074;53.720;10.014;2022-12-18T04:53:15;-6.00;99.90
10070;DHT22;5074;53.720;10.014;2022-12-18T04:55:43;-6.00;99.90
10070;DHT22;5074;53.720;10.014;2022-12-18T04:58:11;-5.90;99.90
10070;DHT22;5074;53.720;10.014;2022-12-18T05:00:39;-5.90;99.90
10070;DHT22;5074;53.720;10.014;2022-12-18T05:03:07;-5.80;99.90
10070;DHT22;5074;53.720;10.014;2022-12-18T05:05:36;-5.80;99.90
10070;DHT22;5074;53.720;10.014;2022-12-18T05:08:04;-5.80;99.90
10070;DHT22;5074;53.720;10.014;2022-12-18T05:10:32;-5.80;99.90
10070;DHT22;5074;53.720;10.014;2022-12-18T05:13:04;-5.90;99.90
10070;DHT22;5074;53.720;10.014;2022-12-18T05:15:32;-5.90;99.90
10070;DHT22;5074;53.720;10.014;2022-12-18T05:18:00;-6.00;99.90
10070;DHT22;5074;53.720;10.014;2022-12-18T05:20:30;-6.00;99.90
10070;DHT22;5074;53.720;10.014;2022-12-18T05:22:59;-6.00;99.90
10070;DHT22;5074;53.720;10.014;2022-12-18T05:25:27;-6.00;99.90
10070;DHT22;5074;53.720;10.014;2022-12-18T05:27:56;-5.90;99.90
10070;DHT22;5074;53.720;10.014;2022-12-18T05:30:25;-6.00;99.90
10070;DHT22;5074;53.720;10.014;2022-12-18T05:32:54;-6.00;99.90
10070;DHT22;5074;53.720;10.014;2022-12-18T05:35:22;-5.90;99.90
10070;DHT22;5074;53.720;10.014;2022-12-18T05:37:50;-5.90;99.90
10070;DHT22;5074;53.720;10.014;2022-12-18T05:40:19;-5.90;99.90
10070;DHT22;5074;53.720;10.014;2022-12-18T05:42:47;-5.90;99.90
10070;DHT22;5074;53.720;10.014;2022-12-18T05:45:15;-5.90;99.90
10070;DHT22;5074;53.720;10.014;2022-12-18T05:47:44;-5.90;99.90
10070;DHT22;5074;53.720;10.014;2022-12-18T05:50:12;-5.90;99.90
10070;DHT22;5074;53.720;10.014;2022-12-18T05:52:40;-5.90;99.90
10070;DHT22;5074;53.720;10.014;2022-12-18T05:55:08;-5.90;99.90
10070;DHT22;5074;53.720;10.014;2022-12-18T05:57:37;-6.00;99.90
10070;DHT22;5074;53.720;10.014;2022-12-18T06:00:05;-6.00;99.90
10070;DHT22;5074;53.720;10.014;2022-12-18T06:02:34;-6.10;99.90
10070;DHT22;5074;53.720;10.014;2022-12-18T06:05:03;-5.90;99.90
10070;DHT22;5074;53.720;10.014;2022-12-18T06:07:31;-5.90;99.90
10070;DHT22;5074;53.720;10.014;2022-12-18T06:09:59;-5.90;99.90
10070;DHT22;5074;53.720;10.014;2022-12-18T06:12:27;-6.00;99.90
10070;DHT22;5074;53.720;10.014;2022-12-18T06:14:57;-6.00;99.90
10070;DHT22;5074;53.720;10.014;2022-12-18T06:17:27;-6.00;99.90
10070;DHT22;5074;53.720;10.014;2022-12-18T06:19:55;-6.00;99.90
10070;DHT22;5074;53.720;10.014;2022-12-18T06:22:23;-6.00;99.90
10070;DHT22;5074;53.720;10.014;2022-12-18T06:24:51;-6.00;99.90
10070;DHT22;5074;53.720;10.014;2022-12-18T06:27:19;-6.10;99.90
10070;DHT22;5074;53.720;10.014;2022-12-18T06:29:47;-6.10;99.90
10070;DHT22;5074;53.720;10.014;2022-12-18T06:32:17;-6.10;99.90
10070;DHT22;5074;53.720;10.014;2022-12-18T06:34:45;-6.10;99.90
10070;DHT22;5074;53.720;10.014;2022-12-18T06:37:13;-6.10;99.90
10070;DHT22;5074;53.720;10.014;2022-12-18T06:39:41;-6.20;99.90
10070;DHT22;5074;53.720;10.014;2022-12-18T06:42:09;-6.10;99.90
10070;DHT22;5074;53.720;10.014;2022-12-18T06:44:37;-6.20;99.90
10070;DHT22;5074;53.720;10.014;2022-12-18T06:47:05;-6.20;99.90
10070;DHT22;5074;53.720;10.014;2022-12-18T06:49:34;-6.20;99.90
10070;DHT22;5074;53.720;10.014;2022-12-18T06:52:02;-6.30;99.90
10070;DHT22;5074;53.720;10.014;2022-12-18T06:54:30;-6.10;99.90
10070;DHT22;5074;53.720;10.014;2022-12-18T06:56:58;-6.20;99.90
10070;DHT22;5074;53.720;10.014;2022-12-18T06:59:26;-6.20;99.90
10070;DHT22;5074;53.720;10.014;2022-12-18T07:01:54;-6.20;99.90
10070;DHT22;5074;53.720;10.014;2022-12-18T07:04:26;-6.30;99.90
10070;DHT22;5074;53.720;10.014;2022-12-18T07:06:56;-6.30;99.90
10070;DHT22;5074;53.720;10.014;2022-12-18T07:09:25;-6.30;99.90
10070;DHT22;5074;53.720;10.014;2022-12-18T07:11:55;-6.30;99.90
10070;DHT22;5074;53.720;10.014;2022-12-18T07:14:23;-6.40;99.90
10070;DHT22;5074;53.720;10.014;2022-12-18T07:16:51;-6.20;99.90
10070;DHT22;5074;53.720;10.014;2022-12-18T07:19:19;-5.50;99.90
10070;DHT22;5074;53.720;10.014;2022-12-18T07:21:47;-5.40;99.90
10070;DHT22;5074;53.720;10.014;2022-12-18T07:24:18;-5.70;99.90
10070;DHT22;5074;53.720;10.014;2022-12-18T07:26:46;-5.50;99.90
10070;DHT22;5074;53.720;10.014;2022-12-18T07:29:14;-5.50;99.90
10070;DHT22;5074;53.720;10.014;2022-12-18T07:31:43;-5.50;99.90
10070;DHT22;5074;53.720;10.014;2022-12-18T07:34:11;-5.60;99.90
10070;DHT22;5074;53.720;10.014;2022-12-18T07:36:40;-5.50;99.90
10070;DHT22;5074;53.720;10.014;2022-12-18T07:39:10;-5.30;99.90
10070;DHT22;5074;53.720;10.014;2022-12-18T07:41:39;-5.40;99.90
10070;DHT22;5074;53.720;10.014;2022-12-18T07:44:13;-5.20;99.90
10070;DHT22;5074;53.720;10.014;2022-12-18T07:46:41;-5.20;99.90
10070;DHT22;5074;53.720;10.014;2022-12-18T07:49:09;-5.20;99.90
10070;DHT22;5074;53.720;10.014;2022-12-18T07:51:37;-5.40;99.90
10070;DHT22;5074;53.720;10.014;2022-12-18T07:54:05;-5.40;99.90
10070;DHT22;5074;53.720;10.014;2022-12-18T07:56:33;-5.20;99.90
10070;DHT22;5074;53.720;10.014;2022-12-18T07:59:05;-5.40;99.90
10070;DHT22;5074;53.720;10.014;2022-12-18T08:01:33;-5.60;99.90
10070;DHT22;5074;53.720;10.014;2022-12-18T08:04:01;-5.70;99.90
10070;DHT22;5074;53.720;10.014;2022-12-18T08:06:29;-5.80;99.90
10070;DHT22;5074;53.720;10.014;2022-12-18T08:08:57;-5.80;99.90
10070;DHT22;5074;53.720;10.014;2022-12-18T08:11:26;-5.80;99.90
10070;DHT22;5074;53.720;10.014;2022-12-18T08:13:55;-5.80;99.90
10070;DHT22;5074;53.720;10.014;2022-12-18T08:16:25;-5.80;99.90
10070;DHT22;5074;53.720;10.014;2022-12-18T08:18:53;-5.80;99.90
10070;DHT22;5074;53.720;10.014;2022-12-18T08:21:23;-5.80;99.90
10070;DHT22;5074;53.720;10.014;2022-12-18T08:23:53;-5.90;99.90
10070;DHT22;5074;53.720;10.014;2022-12-18T08:26:22;-5.90;99.90
10070;DHT22;5074;53.720;10.014;2022-12-18T08:28:51;-5.90;99.90
10070;DHT22;5074;53.720;10.014;2022-12-18T08:31:22;-5.80;99.90
10070;DHT22;5074;53.720;10.014;2022-12-18T08:33:52;-5.80;99.90
10070;DHT22;5074;53.720;10.014;2022-12-18T08:36:21;-5.80;99.90
10070;DHT22;5074;53.720;10.014;2022-12-18T08:38:50;-5.60;99.90
10070;DHT22;5074;53.720;10.014;2022-12-18T08:41:19;-5.60;99.90
10070;DHT22;5074;53.720;10.014;2022-12-18T08:43:47;-5.50;99.90
10070;DHT22;5074;53.720;10.014;2022-12-18T08:46:33;-5.50;99.90
10070;DHT22;5074;53.720;10.014;2022-12-18T08:49:05;-5.50;99.90
10070;DHT22;5074;53.720;10.014;2022-12-18T08:51:34;-5.50;99.90
10070;DHT22;5074;53.720;10.014;2022-12-18T08:54:02;-5.50;99.90
10070;DHT22;5074;53.720;10.014;2022-12-18T08:56:32;-5.30;99.90
10070;DHT22;5074;53.720;10.014;2022-12-18T08:59:01;-5.30;99.90
10070;DHT22;5074;53.720;10.014;2022-12-18T09:01:29;-5.30;99.90
10070;DHT22;5074;53.720;10.014;2022-12-18T09:03:58;-5.30;99.90
10070;DHT22;5074;53.720;10.014;2022-12-18T09:06:28;-5.20;99.90
10070;DHT22;5074;53.720;10.014;2022-12-18T09:08:56;-5.20;99.90
10070;DHT22;5074;53.720;10.014;2022-12-18T09:11:26;-5.20;99.90
10070;DHT22;5074;53.720;10.014;2022-12-18T09:13:55;-5.10;99.90
10070;DHT22;5074;53.720;10.014;2022-12-18T09:16:24;-5.10;99.90
10070;DHT22;5074;53.720;10.014;2022-12-18T09:18:58;-5.00;99.90
10070;DHT22;5074;53.720;10.014;2022-12-18T09:21:29;-5.00;99.90
10070;DHT22;5074;53.720;10.014;2022-12-18T09:24:02;-4.90;99.90
10070;DHT22;5074;53.720;10.014;2022-12-18T09:26:34;-4.80;99.90
10070;DHT22;5074;53.720;10.014;2022-12-18T09:29:02;-4.80;99.90
10070;DHT22;5074;53.720;10.014;2022-12-18T09:31:31;-4.70;99.90
10070;DHT22;5074;53.720;10.014;2022-12-18T09:33:59;-4.70;99.90
10070;DHT22;5074;53.720;10.014;2022-12-18T09:36:28;-4.70;99.90
10070;DHT22;5074;53.720;10.014;2022-12-18T09:38:56;-4.60;99.90
10070;DHT22;5074;53.720;10.014;2022-12-18T09:41:34;-4.50;99.90
10070;DHT22;5074;53.720;10.014;2022-12-18T09:44:15;-4.50;99.90
10070;DHT22;5074;53.720;10.014;2022-12-18T09:46:50;-4.40;99.90
10070;DHT22;5074;53.720;10.014;2022-12-18T09:49:23;-4.30;99.90
10070;DHT22;5074;53.720;10.014;2022-12-18T09:51:59;-4.20;99.90
10070;DHT22;5074;53.720;10.014;2022-12-18T09:54:43;-4.20;99.90
10070;DHT22;5074;53.720;10.014;2022-12-18T09:57:15;-4.20;99.90
10070;DHT22;5074;53.720;10.014;2022-12-18T09:59:48;-4.20;99.90
10070;DHT22;5074;53.720;10.014;2022-12-18T10:02:21;-4.00;99.90
10070;DHT22;5074;53.720;10.014;2022-12-18T10:04:55;-3.90;99.90
10070;DHT22;5074;53.720;10.014;2022-12-18T10:07:33;-3.90;99.90
10070;DHT22;5074;53.720;10.014;2022-12-18T10:10:13;-3.80;99.90
10070;DHT22;5074;53.720;10.014;2022-12-18T10:12:51;-3.70;99.90
10070;DHT22;5074;53.720;10.014;2022-12-18T10:15:31;-3.70;99.90
10070;DHT22;5074;53.720;10.014;2022-12-18T10:18:12;-3.70;99.90
10070;DHT22;5074;53.720;10.014;2022-12-18T10:20:50;-3.50;99.90
10070;DHT22;5074;53.720;10.014;2022-12-18T10:23:24;-3.50;99.90
10070;DHT22;5074;53.720;10.014;2022-12-18T10:25:57;-3.40;99.90
10070;DHT22;5074;53.720;10.014;2022-12-18T10:28:31;-3.50;99.90
10070;DHT22;5074;53.720;10.014;2022-12-18T10:31:00;-3.40;99.90
10070;DHT22;5074;53.720;10.014;2022-12-18T10:33:29;-3.40;99.90
10070;DHT22;5074;53.720;10.014;2022-12-18T10:35:58;-3.40;99.90
10070;DHT22;5074;53.720;10.014;2022-12-18T10:38:29;-3.30;99.90
10070;DHT22;5074;53.720;10.014;2022-12-18T10:40:59;-3.20;99.90
10070;DHT22;5074;53.720;10.014;2022-12-18T10:43:29;-3.20;99.90
10070;DHT22;5074;53.720;10.014;2022-12-18T10:46:05;-3.20;99.90
10070;DHT22;5074;53.720;10.014;2022-12-18T10:48:49;-3.10;99.90
10070;DHT22;5074;53.720;10.014;2022-12-18T10:51:21;-3.10;99.90
10070;DHT22;5074;53.720;10.014;2022-12-18T10:53:54;-3.00;99.90
10070;DHT22;5074;53.720;10.014;2022-12-18T10:56:24;-2.90;99.90
10070;DHT22;5074;53.720;10.014;2022-12-18T10:58:55;-2.80;99.90
10070;DHT22;5074;53.720;10.014;2022-12-18T11:01:25;-2.70;99.90
10070;DHT22;5074;53.720;10.014;2022-12-18T11:03:59;-2.70;99.90
10070;DHT22;5074;53.720;10.014;2022-12-18T11:06:29;-2.60;99.90
10070;DHT22;5074;53.720;10.014;2022-12-18T11:08:59;-2.50;99.90
10070;DHT22;5074;53.720;10.014;2022-12-18T11:11:34;-2.50;99.90
10070;DHT22;5074;53.720;10.014;2022-12-18T11:14:03;-2.40;99.90
10070;DHT22;5074;53.720;10.014;2022-12-18T11:16:33;-2.40;99.90
10070;DHT22;5074;53.720;10.014;2022-12-18T11:19:09;-2.30;99.90
10070;DHT22;5074;53.720;10.014;2022-12-18T11:21:49;-2.30;99.90
10070;DHT22;5074;53.720;10.014;2022-12-18T11:24:29;-2.20;99.90
10070;DHT22;5074;53.720;10.014;2022-12-18T11:26:59;-2.20;99.90
10070;DHT22;5074;53.720;10.014;2022-12-18T11:29:31;-2.20;99.90
10070;DHT22;5074;53.720;10.014;2022-12-18T11:32:14;-2.20;99.90
10070;DHT22;5074;53.720;10.014;2022-12-18T11:34:52;-2.20;99.90
10070;DHT22;5074;53.720;10.014;2022-12-18T11:37:27;-2.10;99.90
10070;DHT22;5074;53.720;10.014;2022-12-18T11:39:58;-2.10;99.90
10070;DHT22;5074;53.720;10.014;2022-12-18T11:42:32;-2.00;99.90
10070;DHT22;5074;53.720;10.014;2022-12-18T11:45:11;-2.00;99.90
10070;DHT22;5074;53.720;10.014;2022-12-18T11:47:54;-2.10;99.90
10070;DHT22;5074;53.720;10.014;2022-12-18T11:50:29;-2.10;99.90
10070;DHT22;5074;53.720;10.014;2022-12-18T11:53:01;-2.00;99.90
10070;DHT22;5074;53.720;10.014;2022-12-18T11:55:36;-2.10;99.90
10070;DHT22;5074;53.720;10.014;2022-12-18T11:58:11;-2.10;99.90
10070;DHT22;5074;53.720;10.014;2022-12-18T12:00:49;-2.00;99.90
10070;DHT22;5074;53.720;10.014;2022-12-18T12:03:29;-2.00;99.90
10070;DHT22;5074;53.720;10.014;2022-12-18T12:06:16;-2.00;99.90
10070;DHT22;5074;53.720;10.014;2022-12-18T12:08:54;-2.00;99.90
10070;DHT22;5074;53.720;10.014;2022-12-18T12:11:35;-2.00;99.90
10070;DHT22;5074;53.720;10.014;2022-12-18T12:14:21;-2.00;99.90
10070;DHT22;5074;53.720;10.014;2022-12-18T12:17:01;-1.90;99.90
10070;DHT22;5074;53.720;10.014;2022-12-18T12:19:39;-1.90;99.90
10070;DHT22;5074;53.720;10.014;2022-12-18T12:22:19;-2.00;99.90
10070;DHT22;5074;53.720;10.014;2022-12-18T12:25:01;-2.00;99.90
10070;DHT22;5074;53.720;10.014;2022-12-18T12:27:46;-2.00;99.90
10070;DHT22;5074;53.720;10.014;2022-12-18T12:30:20;-2.00;99.90
10070;DHT22;5074;53.720;10.014;2022-12-18T12:32:56;-2.00;99.90
10070;DHT22;5074;53.720;10.014;2022-12-18T12:35:33;-2.00;99.90
10070;DHT22;5074;53.720;10.014;2022-12-18T12:38:12;-2.00;99.90
10070;DHT22;5074;53.720;10.014;2022-12-18T12:40:44;-2.00;99.90
10070;DHT22;5074;53.720;10.014;2022-12-18T12:43:28;-2.00;99.90
10070;DHT22;5074;53.720;10.014;2022-12-18T12:46:04;-2.00;99.90
10070;DHT22;5074;53.720;10.014;2022-12-18T12:48:41;-2.00;99.90
10070;DHT22;5074;53.720;10.014;2022-12-18T12:51:16;-1.90;99.90
10070;DHT22;5074;53.720;10.014;2022-12-18T12:53:47;-1.90;99.90
10070;DHT22;5074;53.720;10.014;2022-12-18T12:56:16;-1.90;99.90
10070;DHT22;5074;53.720;10.014;2022-12-18T12:58:54;-1.90;99.90
10070;DHT22;5074;53.720;10.014;2022-12-18T13:01:32;-1.80;99.90
10070;DHT22;5074;53.720;10.014;2022-12-18T13:04:12;-1.80;99.90
10070;DHT22;5074;53.720;10.014;2022-12-18T13:06:50;-1.80;99.90
10070;DHT22;5074;53.720;10.014;2022-12-18T13:09:29;-1.80;99.90
10070;DHT22;5074;53.720;10.014;2022-12-18T13:12:02;-1.80;99.90
10070;DHT22;5074;53.720;10.014;2022-12-18T13:14:50;-1.80;99.90
10070;DHT22;5074;53.720;10.014;2022-12-18T13:17:29;-1.70;99.90
10070;DHT22;5074;53.720;10.014;2022-12-18T13:20:09;-1.70;99.90
10070;DHT22;5074;53.720;10.014;2022-12-18T13:22:40;-1.60;99.90
10070;DHT22;5074;53.720;10.014;2022-12-18T13:25:26;-1.60;99.90
10070;DHT22;5074;53.720;10.014;2022-12-18T13:28:06;-1.60;99.90
10070;DHT22;5074;53.720;10.014;2022-12-18T13:30:48;-1.50;99.90
10070;DHT22;5074;53.720;10.014;2022-12-18T13:33:36;-1.50;99.90
10070;DHT22;5074;53.720;10.014;2022-12-18T13:36:30;-1.60;99.90
10070;DHT22;5074;53.720;10.014;2022-12-18T13:45:45;-1.80;99.90
10070;DHT22;5074;53.720;10.014;2022-12-18T13:48:19;-1.80;99.90
10070;DHT22;5074;53.720;10.014;2022-12-18T13:50:52;-1.90;99.90
10070;DHT22;5074;53.720;10.014;2022-12-18T13:53:24;-2.00;99.90
10070;DHT22;5074;53.720;10.014;2022-12-18T13:55:55;-2.00;99.90
10070;DHT22;5074;53.720;10.014;2022-12-18T13:58:24;-2.00;99.90
10070;DHT22;5074;53.720;10.014;2022-12-18T14:00:54;-2.10;99.90
10070;DHT22;5074;53.720;10.014;2022-12-18T14:03:24;-2.10;99.90
10070;DHT22;5074;53.720;10.014;2022-12-18T14:05:55;-2.10;99.90
10070;DHT22;5074;53.720;10.014;2022-12-18T14:08:27;-2.20;99.90
10070;DHT22;5074;53.720;10.014;2022-12-18T14:11:01;-2.20;99.90
10070;DHT22;5074;53.720;10.014;2022-12-18T14:13:35;-2.30;99.90
10070;DHT22;5074;53.720;10.014;2022-12-18T14:16:06;-2.30;99.90
10070;DHT22;5074;53.720;10.014;2022-12-18T14:18:38;-2.30;99.90
10070;DHT22;5074;53.720;10.014;2022-12-18T14:21:17;-2.30;99.90
10070;DHT22;5074;53.720;10.014;2022-12-18T14:23:48;-2.30;99.90
10070;DHT22;5074;53.720;10.014;2022-12-18T14:26:20;-2.30;99.90
10070;DHT22;5074;53.720;10.014;2022-12-18T14:28:51;-2.30;99.90
10070;DHT22;5074;53.720;10.014;2022-12-18T14:31:22;-2.40;99.90
10070;DHT22;5074;53.720;10.014;2022-12-18T14:33:52;-2.40;99.90
10070;DHT22;5074;53.720;10.014;2022-12-18T14:36:22;-2.40;99.90
10070;DHT22;5074;53.720;10.014;2022-12-18T14:38:51;-2.50;99.90
10070;DHT22;5074;53.720;10.014;2022-12-18T14:41:21;-2.50;99.90
10070;DHT22;5074;53.720;10.014;2022-12-18T14:43:51;-2.60;99.90
10070;DHT22;5074;53.720;10.014;2022-12-18T14:46:29;-2.60;99.90
10070;DHT22;5074;53.720;10.014;2022-12-18T14:49:01;-2.60;99.90
10070;DHT22;5074;53.720;10.014;2022-12-18T14:51:31;-2.70;99.90
10070;DHT22;5074;53.720;10.014;2022-12-18T14:54:02;-2.70;99.90
10070;DHT22;5074;53.720;10.014;2022-12-18T14:56:34;-2.80;99.90
10070;DHT22;5074;53.720;10.014;2022-12-18T14:59:04;-2.80;99.90
10070;DHT22;5074;53.720;10.014;2022-12-18T15:01:36;-2.90;99.90
10070;DHT22;5074;53.720;10.014;2022-12-18T15:04:19;-3.00;99.90
10070;DHT22;5074;53.720;10.014;2022-12-18T15:07:04;-3.10;99.90
10070;DHT22;5074;53.720;10.014;2022-12-18T15:09:35;-3.00;99.90
10070;DHT22;5074;53.720;10.014;2022-12-18T15:12:05;-3.10;99.90
10070;DHT22;5074;53.720;10.014;2022-12-18T15:14:46;-3.10;99.90
10070;DHT22;5074;53.720;10.014;2022-12-18T15:17:17;-3.10;99.90
10070;DHT22;5074;53.720;10.014;2022-12-18T15:19:48;-3.00;99.90
10070;DHT22;5074;53.720;10.014;2022-12-18T15:22:20;-3.10;99.90
10070;DHT22;5074;53.720;10.014;2022-12-18T15:24:50;-3.00;99.90
10070;DHT22;5074;53.720;10.014;2022-12-18T15:27:23;-3.00;99.90
10070;DHT22;5074;53.720;10.014;2022-12-18T15:30:20;-3.10;99.90
10070;DHT22;5074;53.720;10.014;2022-12-18T15:32:51;-3.10;99.90
10070;DHT22;5074;53.720;10.014;2022-12-18T15:35:21;-3.10;99.90
10070;DHT22;5074;53.720;10.014;2022-12-18T15:37:51;-3.20;99.90
10070;DHT22;5074;53.720;10.014;2022-12-18T15:40:20;-3.20;99.90
10070;DHT22;5074;53.720;10.014;2022-12-18T15:42:51;-3.30;99.90
10070;DHT22;5074;53.720;10.014;2022-12-18T15:45:38;-3.40;99.90
10070;DHT22;5074;53.720;10.014;2022-12-18T15:48:17;-3.40;99.90
10070;DHT22;5074;53.720;10.014;2022-12-18T15:50:48;-3.40;99.90
10070;DHT22;5074;53.720;10.014;2022-12-18T15:53:17;-3.40;99.90
10070;DHT22;5074;53.720;10.014;2022-12-18T15:55:46;-3.20;99.90
10070;DHT22;5074;53.720;10.014;2022-12-18T15:58:32;-2.80;99.90
10070;DHT22;5074;53.720;10.014;2022-12-18T16:01:00;-2.60;99.90
10070;DHT22;5074;53.720;10.014;2022-12-18T16:03:30;-2.40;99.90
10070;DHT22;5074;53.720;10.014;2022-12-18T16:05:58;-2.20;99.90
10070;DHT22;5074;53.720;10.014;2022-12-18T16:08:29;-2.20;99.90